Time;durP1;ratioP1;P1;durP2;ratioP2;P2;SDS_P1;SDS_P2;PMS_P1;PMS_P2;Temp;Humidity;BMP_temperature;BMP_pressure;BME280_temperature;BME280_humidity;BME280_pressure;Samples;Min_cycle;Max_cycle;Signal;HPM_P1;HPM_P2
2023/10/18 00:01:43;;;;;;;9.60;8.70;;;;;;;6.26;100.00;97775.44;5073879;28;20208;-75
2023/10/18 00:04:13;;;;;;;9.03;8.13;;;;;;;6.25;100.00;97771.13;5074007;28;20224;-75
2023/10/18 00:06:40;;;;;;;8.90;8.00;;;;;;;6.18;100.00;97774.78;5073923;28;20197;-75
2023/10/18 00:11:48;;;;;;;11.93;9.60;;;;;;;6.14;100.00;97771.72;5072715;28;20537;-75
2023/10/18 00:14:14;;;;;;;12.10;9.70;;;;;;;6.22;100.00;97765.44;5074129;28;20242;-75
2023/10/18 00:16:40;;;;;;;11.40;9.27;;;;;;;6.21;100.00;97763.81;5073798;28;20200;-75
2023/10/18 00:19:07;;;;;;;10.80;9.67;;;;;;;6.28;100.00;97769.94;5073999;28;20234;-75
2023/10/18 00:21:33;;;;;;;11.40;9.43;;;;;;;6.25;100.00;97765.06;5073956;28;20205;-76
2023/10/18 00:23:59;;;;;;;10.17;9.23;;;;;;;6.22;100.00;97762.81;5073827;28;20232;-76
2023/10/18 00:26:26;;;;;;;10.07;9.07;;;;;;;6.13;100.00;97764.81;5074110;28;20205;-76
2023/10/18 00:28:53;;;;;;;12.27;9.63;;;;;;;6.22;100.00;97760.16;5073731;28;20258;-76
2023/10/18 00:31:20;;;;;;;10.57;9.47;;;;;;;6.08;100.00;97754.06;5073820;28;20232;-76
2023/10/18 00:33:47;;;;;;;10.93;9.00;;;;;;;5.97;100.00;97759.88;5073220;28;20208;-76
2023/10/18 00:36:16;;;;;;;9.63;8.60;;;;;;;5.99;100.00;97754.41;5073808;28;20570;-75
2023/10/18 00:38:46;;;;;;;10.67;9.57;;;;;;;6.04;100.00;97752.81;5073406;28;20259;-75
2023/10/18 00:41:16;;;;;;;9.80;8.53;;;;;;;5.96;100.00;97745.06;5073373;28;20269;-75
2023/10/18 00:43:45;;;;;;;11.83;9.40;;;;;;;5.98;100.00;97750.16;5073236;28;20217;-75
2023/10/18 00:46:13;;;;;;;10.97;9.63;;;;;;;5.89;100.00;97743.41;5073661;28;20290;-75
2023/10/18 00:48:44;;;;;;;10.07;9.07;;;;;;;5.99;100.00;97741.22;5073278;28;20764;-75
2023/10/18 00:51:11;;;;;;;10.57;8.73;;;;;;;5.98;100.00;97737.75;5074117;28;20201;-75
2023/10/18 00:53:40;;;;;;;11.33;9.67;;;;;;;5.92;100.00;97732.47;5073518;28;20204;-75
2023/10/18 00:56:07;;;;;;;9.57;8.57;;;;;;;5.84;100.00;97735.28;5073707;28;20204;-75
2023/10/18 00:58:35;;;;;;;10.73;8.93;;;;;;;5.75;100.00;97720.59;5073467;28;20228;-75
2023/10/18 01:01:08;;;;;;;9.70;8.70;;;;;;;5.73;100.00;97722.59;5073352;28;20223;-75
2023/10/18 01:03:36;;;;;;;11.00;8.67;;;;;;;5.68;100.00;97714.47;5074092;28;20240;-75
2023/10/18 01:06:19;;;;;;;10.03;9.03;;;;;;;5.78;100.00;97715.75;5073514;28;20219;-75
2023/10/18 01:08:46;;;;;;;9.40;8.50;;;;;;;5.84;100.00;97708.91;5073097;28;20710;-75
2023/10/18 01:11:14;;;;;;;9.73;8.67;;;;;;;5.79;100.00;97703.38;5073715;28;20299;-75
2023/10/18 01:13:43;;;;;;;9.90;8.90;;;;;;;5.83;100.00;97692.25;5073607;28;20206;-75
2023/10/18 01:16:13;;;;;;;10.50;9.10;;;;;;;5.85;100.00;97694.69;5073613;28;20246;-75
2023/10/18 01:18:42;;;;;;;10.60;9.40;;;;;;;5.95;100.00;97689.84;5073220;28;20228;-75
2023/10/18 01:21:18;;;;;;;9.73;8.83;;;;;;;5.94;100.00;97691.69;5073577;28;20204;-75
2023/10/18 01:23:49;;;;;;;9.63;8.67;;;;;;;5.91;100.00;97692.09;5074180;28;20224;-76
2023/10/18 01:26:19;;;;;;;9.40;8.50;;;;;;;5.91;100.00;97683.34;5073303;28;20732;-76
2023/10/18 01:28:46;;;;;;;11.23;9.23;;;;;;;5.88;100.00;97676.66;5073242;28;20231;-76
2023/10/18 01:31:13;;;;;;;10.57;9.53;;;;;;;5.89;100.00;97682.75;5072995;28;20227;-76
2023/10/18 01:33:43;;;;;;;12.27;9.70;;;;;;;5.87;100.00;97675.03;5072962;28;20558;-76
2023/10/18 01:36:14;;;;;;;11.43;10.07;;;;;;;5.93;100.00;97679.50;5073684;28;20334;-76
2023/10/18 01:38:44;;;;;;;12.80;10.70;;;;;;;5.92;100.00;97677.09;5073116;28;20315;-76
2023/10/18 01:41:13;;;;;;;11.17;10.07;;;;;;;5.88;100.00;97666.09;5072888;28;20729;-76
2023/10/18 01:43:43;;;;;;;11.17;10.07;;;;;;;5.86;100.00;97667.31;5073114;28;20201;-76
2023/10/18 01:46:13;;;;;;;11.30;9.80;;;;;;;5.78;100.00;97668.28;5076983;28;20209;-76
2023/10/18 01:48:39;;;;;;;12.87;10.53;;;;;;;5.75;100.00;97667.84;5076292;28;20235;-76
2023/10/18 01:51:06;;;;;;;10.90;9.43;;;;;;;5.74;100.00;97661.75;5076733;28;20254;-76
2023/10/18 01:53:38;;;;;;;10.47;9.33;;;;;;;5.75;100.00;97660.75;5076489;28;20211;-75
2023/10/18 01:56:06;;;;;;;10.37;9.13;;;;;;;5.66;100.00;97658.50;5076641;28;20193;-75
2023/10/18 01:58:33;;;;;;;11.47;9.87;;;;;;;5.61;100.00;97655.63;5076616;28;20235;-75
2023/10/18 02:01:01;;;;;;;9.97;9.00;;;;;;;5.65;100.00;97651.59;5076510;28;20227;-75
2023/10/18 02:03:28;;;;;;;9.97;8.93;;;;;;;5.63;100.00;97649.16;5076127;28;20209;-75
2023/10/18 02:05:56;;;;;;;11.00;9.13;;;;;;;5.58;100.00;97646.31;5076412;28;20207;-75
2023/10/18 02:08:22;;;;;;;11.10;9.00;;;;;;;5.60;100.00;97651.34;5076165;28;20224;-75
2023/10/18 02:10:50;;;;;;;10.03;9.03;;;;;;;5.67;100.00;97646.94;5076284;28;20295;-75
2023/10/18 02:13:18;;;;;;;10.67;9.53;;;;;;;5.58;100.00;97648.13;5076394;28;20244;-75
2023/10/18 02:15:45;;;;;;;10.43;9.40;;;;;;;5.62;100.00;97646.72;5076103;28;20200;-75
2023/10/18 02:18:14;;;;;;;13.57;9.40;;;;;;;5.54;100.00;97646.88;5075888;28;20263;-75
2023/10/18 02:20:42;;;;;;;10.13;8.80;;;;;;;5.55;100.00;97638.78;5076064;28;20296;-75
2023/10/18 02:23:11;;;;;;;10.00;8.83;;;;;;;5.51;100.00;97634.06;5076018;28;20209;-75
2023/10/18 02:25:43;;;;;;;11.87;9.23;;;;;;;5.55;100.00;97641.41;5075711;28;20734;-75
2023/10/18 02:28:24;;;;;;;10.93;9.73;;;;;;;5.58;100.00;97650.75;5076184;28;20231;-75
2023/10/18 02:31:07;;;;;;;10.60;9.53;;;;;;;5.67;100.00;97650.41;5075833;28;20601;-75
2023/10/18 02:33:36;;;;;;;10.67;9.57;;;;;;;5.68;100.00;97656.47;5076044;28;20201;-75
2023/10/18 02:36:06;;;;;;;10.90;9.57;;;;;;;5.72;100.00;97652.41;5076147;28;20212;-75
2023/10/18 02:38:37;;;;;;;10.03;9.00;;;;;;;5.59;100.00;97647.91;5075530;28;20597;-76
2023/10/18 02:41:14;;;;;;;11.23;9.10;;;;;;;5.41;100.00;97637.09;5076156;28;20207;-75
2023/10/18 02:43:45;;;;;;;11.40;9.50;;;;;;;5.55;100.00;97636.13;5074563;28;20216;-75
2023/10/18 02:46:21;;;;;;;10.87;9.73;;;;;;;5.47;100.00;97635.50;5075668;28;20242;-75
2023/10/18 02:48:50;;;;;;;10.83;9.73;;;;;;;5.60;100.00;97640.81;5075587;28;20231;-75
2023/10/18 02:51:22;;;;;;;10.57;8.97;;;;;;;5.44;100.00;97634.09;5075301;28;20296;-75
2023/10/18 02:53:49;;;;;;;9.63;8.67;;;;;;;5.51;100.00;97627.00;5075553;28;20200;-75
2023/10/18 02:56:20;;;;;;;11.33;9.47;;;;;;;5.48;100.00;97618.69;5074948;28;20204;-75
2023/10/18 02:58:50;;;;;;;11.03;9.57;;;;;;;5.48;100.00;97623.94;5075373;28;20687;-75
2023/10/18 03:01:18;;;;;;;10.27;9.17;;;;;;;5.47;100.00;97624.97;5075178;28;20262;-75
2023/10/18 03:03:49;;;;;;;12.43;9.10;;;;;;;5.57;100.00;97628.03;5074766;28;20734;-75
2023/10/18 03:06:16;;;;;;;11.00;9.60;;;;;;;5.66;100.00;97626.84;5075267;28;20193;-75
2023/10/18 03:08:47;;;;;;;12.03;9.53;;;;;;;5.76;100.00;97632.56;5075032;28;20231;-75
2023/10/18 03:11:13;;;;;;;11.47;10.27;;;;;;;5.78;100.00;97627.88;5075155;28;20654;-76
2023/10/18 03:13:40;;;;;;;10.67;9.60;;;;;;;6.02;100.00;97630.81;5074957;28;20200;-76
2023/10/18 03:16:15;;;;;;;11.23;10.13;;;;;;;5.86;100.00;97628.56;5074848;28;20211;-75
2023/10/18 03:18:43;;;;;;;11.43;10.20;;;;;;;5.72;100.00;97620.78;5074248;28;20726;-75
2023/10/18 03:21:20;;;;;;;11.10;10.00;;;;;;;5.71;100.00;97613.88;5074578;28;20299;-75
2023/10/18 03:23:50;;;;;;;11.30;10.10;;;;;;;5.63;100.00;97611.41;5075087;28;20611;-75
2023/10/18 03:26:21;;;;;;;10.83;9.70;;;;;;;5.64;100.00;97605.13;5074978;28;20214;-75
2023/10/18 03:28:50;;;;;;;10.30;9.20;;;;;;;5.61;100.00;97602.91;5074355;28;20756;-75
2023/10/18 03:31:27;;;;;;;10.90;9.80;;;;;;;5.68;100.00;97601.91;5074537;28;20219;-75
2023/10/18 03:33:54;;;;;;;11.57;10.37;;;;;;;5.67;100.00;97607.38;5074472;28;20238;-75
2023/10/18 03:36:26;;;;;;;11.70;10.50;;;;;;;5.74;100.00;97608.22;5074554;28;20204;-75
2023/10/18 03:38:55;;;;;;;10.80;9.70;;;;;;;5.73;100.00;97607.41;5074512;28;20224;-75
2023/10/18 03:41:25;;;;;;;12.10;9.87;;;;;;;5.64;100.00;97595.41;5074134;28;20215;-75
2023/10/18 03:43:58;;;;;;;11.67;10.53;;;;;;;5.67;100.00;97602.09;5074275;28;20724;-76
2023/10/18 03:46:38;;;;;;;11.17;10.07;;;;;;;5.67;100.00;97602.94;5074136;28;20655;-75
2023/10/18 03:49:08;;;;;;;10.20;9.20;;;;;;;5.57;100.00;97602.47;5074469;28;20227;-75
2023/10/18 03:51:36;;;;;;;11.20;10.10;;;;;;;5.47;100.00;97602.03;5073924;28;20295;-75
2023/10/18 03:54:03;;;;;;;10.97;9.47;;;;;;;5.52;100.00;97598.81;5074229;28;20208;-75
2023/10/18 03:56:35;;;;;;;11.50;10.30;;;;;;;5.58;100.00;97601.47;5074111;28;20208;-75
2023/10/18 03:59:09;;;;;;;11.30;10.07;;;;;;;5.61;100.00;97590.50;5074296;28;20322;-75
2023/10/18 04:01:42;;;;;;;11.23;10.13;;;;;;;5.55;100.00;97587.84;5073631;28;20628;-75
2023/10/18 04:04:17;;;;;;;11.90;10.30;;;;;;;5.56;100.00;97586.88;5073637;28;20189;-75
2023/10/18 04:06:44;;;;;;;11.70;10.60;;;;;;;5.63;100.00;97583.22;5073775;28;20240;-75
2023/10/18 04:09:16;;;;;;;11.67;10.47;;;;;;;5.69;100.00;97577.16;5072880;28;20235;-75
2023/10/18 04:11:42;;;;;;;12.03;10.83;;;;;;;5.61;100.00;97566.78;5074124;28;20189;-75
2023/10/18 04:14:10;;;;;;;10.97;9.83;;;;;;;5.61;100.00;97579.19;5073994;28;20211;-75
2023/10/18 04:16:38;;;;;;;11.47;10.27;;;;;;;5.61;100.00;97576.53;5073138;28;20671;-75
2023/10/18 04:19:07;;;;;;;12.27;10.97;;;;;;;5.64;100.00;97566.41;5073830;28;20718;-75
2023/10/18 04:21:34;;;;;;;13.20;10.67;;;;;;;5.66;100.00;97560.94;5074023;28;20582;-75
2023/10/18 04:24:03;;;;;;;11.93;10.27;;;;;;;5.67;100.00;97554.63;5073772;28;20208;-75
2023/10/18 04:26:30;;;;;;;11.90;10.40;;;;;;;5.56;100.00;97549.97;5073221;28;20320;-75
2023/10/18 04:29:01;;;;;;;12.50;10.77;;;;;;;5.41;100.00;97538.75;5073646;28;20228;-75
2023/10/18 04:31:27;;;;;;;11.40;10.23;;;;;;;5.37;100.00;97537.53;5073531;28;20189;-75
2023/10/18 04:33:57;;;;;;;13.00;10.83;;;;;;;5.40;100.00;97539.78;5073466;28;20618;-75
2023/10/18 04:36:23;;;;;;;13.10;11.03;;;;;;;5.43;100.00;97529.63;5073656;28;20602;-76
2023/10/18 04:38:51;;;;;;;13.53;11.77;;;;;;;5.48;100.00;97531.69;5073069;28;20710;-76
2023/10/18 04:41:26;;;;;;;12.07;10.67;;;;;;;5.59;100.00;97531.91;5074158;28;20208;-75
2023/10/18 04:43:58;;;;;;;11.93;10.43;;;;;;;5.56;100.00;97532.28;5073608;28;20228;-75
2023/10/18 04:46:26;;;;;;;12.87;11.43;;;;;;;5.59;100.00;97536.34;5073556;28;20258;-75
2023/10/18 04:49:16;;;;;;;12.40;11.17;;;;;;;5.60;100.00;97530.88;5073123;28;20224;-75
2023/10/18 04:51:44;;;;;;;11.90;10.70;;;;;;;5.49;100.00;97525.38;5073296;28;20607;-75
2023/10/18 04:54:15;;;;;;;12.50;11.20;;;;;;;5.55;100.00;97524.59;5073271;28;20254;-75
2023/10/18 04:56:44;;;;;;;12.17;10.87;;;;;;;5.49;100.00;97523.59;5073621;28;20201;-75
2023/10/18 04:59:10;;;;;;;11.47;10.27;;;;;;;5.42;100.00;97528.00;5073459;28;20315;-75
2023/10/18 05:01:42;;;;;;;12.40;10.60;;;;;;;5.45;100.00;97519.72;5072795;28;20223;-75
2023/10/18 05:04:20;;;;;;;14.00;10.77;;;;;;;5.49;100.00;97517.47;5073182;28;20188;-75
2023/10/18 05:06:54;;;;;;;14.90;11.40;;;;;;;5.45;100.00;97518.91;5072899;28;20185;-76
2023/10/18 05:09:30;;;;;;;13.47;11.07;;;;;;;5.35;100.00;97500.84;5072964;28;20289;-75
2023/10/18 05:12:06;;;;;;;12.07;10.47;;;;;;;5.37;100.00;97506.72;5073122;28;20558;-75
2023/10/18 05:14:43;;;;;;;12.17;10.90;;;;;;;5.45;100.00;97509.16;5072722;28;20189;-75
2023/10/18 05:17:17;;;;;;;12.53;10.53;;;;;;;5.37;100.00;97501.44;5072859;28;20189;-75
2023/10/18 05:19:47;;;;;;;14.93;11.20;;;;;;;5.37;100.00;97498.81;5074905;28;20189;-75
2023/10/18 05:22:19;;;;;;;12.07;10.83;;;;;;;5.32;100.00;97501.22;5076907;28;20236;-75
2023/10/18 05:24:55;;;;;;;12.20;10.90;;;;;;;5.36;100.00;97504.28;5077461;28;20209;-75
2023/10/18 05:27:26;;;;;;;14.90;11.10;;;;;;;5.33;100.00;97504.69;5076872;28;20247;-75
2023/10/18 05:29:57;;;;;;;12.37;11.07;;;;;;;5.42;100.00;97506.94;5076843;28;20197;-75
2023/10/18 05:32:39;;;;;;;11.80;10.60;;;;;;;5.49;100.00;97510.41;5077106;28;20639;-75
2023/10/18 05:37:59;;;;;;;11.60;10.40;;;;;;;5.44;100.00;97510.19;5075864;28;20228;-75
2023/10/18 05:43:22;;;;;;;13.63;11.43;;;;;;;5.51;100.00;97497.00;5076325;28;20187;-75
2023/10/18 05:45:48;;;;;;;12.63;11.33;;;;;;;5.25;100.00;97502.22;5076185;28;20240;-75
2023/10/18 05:48:17;;;;;;;12.63;11.27;;;;;;;5.38;100.00;97497.78;5076262;28;20231;-75
2023/10/18 05:50:49;;;;;;;12.30;10.73;;;;;;;5.46;100.00;97496.78;5075968;28;20262;-75
2023/10/18 05:53:18;;;;;;;14.47;11.83;;;;;;;5.46;100.00;97509.97;5076051;28;20273;-75
2023/10/18 05:55:52;;;;;;;13.70;11.60;;;;;;;5.47;100.00;97503.72;5076224;28;20582;-75
2023/10/18 05:58:25;;;;;;;15.03;11.97;;;;;;;5.53;100.00;97500.25;5076330;28;20319;-75
2023/10/18 06:01:02;;;;;;;13.17;11.13;;;;;;;5.49;100.00;97496.41;5075427;28;20235;-75
2023/10/18 06:03:38;;;;;;;15.70;12.00;;;;;;;5.44;100.00;97496.19;5076175;28;20541;-75
2023/10/18 06:06:06;;;;;;;14.53;11.27;;;;;;;5.42;100.00;97493.75;5075759;28;20232;-75
2023/10/18 06:08:32;;;;;;;14.43;11.70;;;;;;;5.49;100.00;97483.22;5075752;28;20236;-76
2023/10/18 06:11:01;;;;;;;15.40;11.23;;;;;;;5.58;100.00;97492.56;5075613;28;20705;-75
2023/10/18 06:13:27;;;;;;;14.70;12.33;;;;;;;5.55;100.00;97483.22;5075898;28;20209;-76
2023/10/18 06:15:58;;;;;;;16.07;12.60;;;;;;;5.60;100.00;97482.59;5075568;28;20212;-76
2023/10/18 06:18:30;;;;;;;19.03;13.23;;;;;;;5.68;100.00;97482.41;5075643;28;20229;-76
2023/10/18 06:20:59;;;;;;;21.03;14.00;;;;;;;5.66;100.00;97479.97;5075327;28;20197;-75
2023/10/18 06:23:37;;;;;;;17.80;13.43;;;;;;;5.80;100.00;97467.63;5075428;28;20287;-75
2023/10/18 06:28:53;;;;;;;14.50;12.27;;;;;;;5.84;100.00;97471.50;5074687;28;20299;-75
2023/10/18 06:31:21;;;;;;;12.57;11.27;;;;;;;5.88;100.00;97470.88;5074220;28;20229;-75
2023/10/18 06:33:51;;;;;;;16.17;12.00;;;;;;;5.97;100.00;97468.88;5075354;28;20208;-75
2023/10/18 06:36:21;;;;;;;13.40;12.00;;;;;;;6.01;100.00;97472.72;5075129;28;20200;-75
2023/10/18 06:38:48;;;;;;;13.20;11.90;;;;;;;6.13;100.00;97468.44;5074124;28;20232;-75
2023/10/18 06:41:18;;;;;;;12.80;11.50;;;;;;;6.15;100.00;97463.78;5074967;28;20326;-76
2023/10/18 06:43:45;;;;;;;14.10;11.70;;;;;;;6.22;100.00;97467.19;5075383;28;20219;-75
2023/10/18 06:46:26;;;;;;;12.40;11.03;;;;;;;6.32;100.00;97467.59;5075214;28;20234;-75
2023/10/18 06:48:56;;;;;;;14.47;11.87;;;;;;;6.32;100.00;97465.78;5074820;28;20235;-75
2023/10/18 06:51:33;;;;;;;13.93;12.07;;;;;;;6.41;100.00;97442.59;5074542;28;20205;-76
2023/10/18 06:54:04;;;;;;;14.43;12.77;;;;;;;6.43;100.00;97451.91;5074854;28;20184;-75
2023/10/18 06:56:32;;;;;;;18.53;13.10;;;;;;;6.48;100.00;97464.50;5075143;28;20195;-75
2023/10/18 06:59:06;;;;;;;16.47;12.97;;;;;;;6.47;100.00;97460.25;5075006;28;20282;-75
2023/10/18 07:01:33;;;;;;;14.17;12.30;;;;;;;6.63;100.00;97447.41;5074735;28;20253;-75
2023/10/18 07:04:00;;;;;;;17.03;12.80;;;;;;;6.54;100.00;97458.41;5074644;28;20204;-75
2023/10/18 07:06:29;;;;;;;15.67;13.17;;;;;;;6.63;100.00;97457.16;5074419;28;20713;-75
2023/10/18 07:08:57;;;;;;;15.83;12.77;;;;;;;6.74;100.00;97453.88;5074508;28;20760;-75
2023/10/18 07:11:25;;;;;;;16.17;13.40;;;;;;;6.72;100.00;97454.06;5074504;28;20666;-75
2023/10/18 07:13:54;;;;;;;18.83;12.77;;;;;;;6.83;100.00;97444.69;5074874;28;20209;-75
2023/10/18 07:16:35;;;;;;;15.53;12.73;;;;;;;6.84;100.00;97439.16;5074732;28;20232;-75
2023/10/18 07:19:06;;;;;;;18.70;13.33;;;;;;;7.05;100.00;97449.44;5074874;28;20278;-75
2023/10/18 07:21:33;;;;;;;18.10;13.17;;;;;;;7.09;100.00;97441.91;5074877;28;20250;-75
2023/10/18 07:24:02;;;;;;;17.73;13.80;;;;;;;6.95;100.00;97443.81;5075656;28;20231;-77
2023/10/18 07:26:29;;;;;;;19.77;14.23;;;;;;;7.04;100.00;97434.63;5074398;28;20242;-76
2023/10/18 07:28:56;;;;;;;19.60;13.90;;;;;;;7.04;100.00;97428.50;5074572;28;20231;-76
2023/10/18 07:31:25;;;;;;;19.93;14.70;;;;;;;7.04;100.00;97425.88;5074296;28;20208;-76
2023/10/18 07:33:51;;;;;;;20.13;14.60;;;;;;;7.30;100.00;97412.50;5074498;28;20204;-76
2023/10/18 07:36:19;;;;;;;20.53;15.00;;;;;;;7.31;100.00;97411.47;5073991;28;20207;-74
2023/10/18 07:38:48;;;;;;;20.37;15.93;;;;;;;7.17;100.00;97405.47;5074009;28;20580;-74
2023/10/18 07:41:18;;;;;;;18.30;14.73;;;;;;;7.09;100.00;97400.44;5074074;28;20200;-74
2023/10/18 07:43:45;;;;;;;17.67;15.40;;;;;;;7.03;100.00;97395.19;5074110;28;20215;-74
2023/10/18 07:46:17;;;;;;;18.87;14.83;;;;;;;7.13;100.00;97393.69;5073823;28;20591;-74
2023/10/18 07:48:47;;;;;;;20.40;14.80;;;;;;;7.33;100.00;97398.88;5073797;28;20734;-76
2023/10/18 07:51:24;;;;;;;16.97;14.40;;;;;;;7.26;100.00;97395.44;5074463;28;20628;-74
2023/10/18 07:53:53;;;;;;;17.37;14.60;;;;;;;7.47;100.00;97395.09;5073811;28;20192;-74
2023/10/18 07:56:26;;;;;;;19.63;15.33;;;;;;;7.68;100.00;97386.75;5074038;28;20223;-74
2023/10/18 07:58:53;;;;;;;17.67;15.30;;;;;;;7.88;100.00;97382.13;5074544;28;20231;-74
2023/10/18 08:01:46;;;;;;;17.60;14.70;;;;;;;7.71;100.00;97373.13;5073409;28;20216;-74
2023/10/18 08:04:14;;;;;;;17.27;14.43;;;;;;;7.77;100.00;97377.53;5073644;28;20201;-75
2023/10/18 08:06:40;;;;;;;17.83;14.43;;;;;;;7.68;100.00;97376.19;5073685;28;20701;-74
2023/10/18 08:09:06;;;;;;;15.83;14.23;;;;;;;7.88;100.00;97384.75;5074390;28;20224;-74
2023/10/18 08:11:34;;;;;;;16.50;14.80;;;;;;;7.87;100.00;97383.94;5073797;28;20208;-76
2023/10/18 08:14:00;;;;;;;16.37;14.13;;;;;;;7.95;100.00;97386.31;5073486;28;20208;-74
2023/10/18 08:16:27;;;;;;;15.80;13.77;;;;;;;8.13;100.00;97377.56;5073564;28;20683;-76
2023/10/18 08:18:57;;;;;;;17.20;14.77;;;;;;;7.94;100.00;97383.88;5073664;28;20232;-74
2023/10/18 08:21:36;;;;;;;15.77;14.10;;;;;;;7.95;100.00;97393.44;5073721;28;20682;-74
2023/10/18 08:24:08;;;;;;;16.30;14.43;;;;;;;7.98;100.00;97395.66;5074831;28;20280;-73
2023/10/18 08:26:47;;;;;;;15.50;14.00;;;;;;;8.06;100.00;97398.81;5073589;28;20278;-75
2023/10/18 08:29:15;;;;;;;15.33;13.73;;;;;;;7.99;100.00;97397.28;5073003;28;20721;-75
2023/10/18 08:31:44;;;;;;;15.53;13.97;;;;;;;8.32;100.00;97405.75;5073905;28;20208;-75
2023/10/18 08:34:14;;;;;;;14.97;13.50;;;;;;;8.39;100.00;97406.47;5073322;28;20218;-75
2023/10/18 08:36:44;;;;;;;13.90;12.60;;;;;;;8.37;100.00;97403.25;5073242;28;20561;-75
2023/10/18 08:39:12;;;;;;;15.93;13.23;;;;;;;8.55;100.00;97396.06;5073559;28;20228;-75
2023/10/18 08:41:55;;;;;;;15.37;13.97;;;;;;;8.63;100.00;97397.63;5073536;28;20200;-75
2023/10/18 08:44:24;;;;;;;15.13;13.53;;;;;;;8.73;100.00;97382.03;5074066;28;20188;-74
2023/10/18 08:47:03;;;;;;;14.53;13.03;;;;;;;8.87;100.00;97386.91;5073077;28;20235;-74
2023/10/18 08:49:33;;;;;;;15.67;13.97;;;;;;;8.76;100.00;97389.50;5073065;28;20188;-74
2023/10/18 08:52:06;;;;;;;15.23;13.73;;;;;;;8.81;100.00;97385.16;5073195;28;20276;-74
2023/10/18 08:54:37;;;;;;;15.90;14.10;;;;;;;9.06;100.00;97382.38;5074697;28;20275;-74
2023/10/18 08:57:07;;;;;;;16.70;14.17;;;;;;;8.59;100.00;97383.19;5076953;28;20636;-74
2023/10/18 08:59:42;;;;;;;16.63;14.93;;;;;;;8.86;100.00;97373.88;5077022;28;20674;-74
2023/10/18 09:02:12;;;;;;;14.77;13.27;;;;;;;9.07;100.00;97376.03;5077308;28;20191;-74
2023/10/18 09:04:44;;;;;;;15.40;13.77;;;;;;;9.07;100.00;97353.00;5077251;28;20208;-74
2023/10/18 09:07:18;;;;;;;14.80;13.37;;;;;;;9.32;100.00;97363.44;5077243;28;20212;-74
2023/10/18 09:09:53;;;;;;;15.43;13.27;;;;;;;9.34;100.00;97362.19;5077037;28;20643;-75
2023/10/18 09:12:31;;;;;;;14.63;13.13;;;;;;;9.44;100.00;97356.28;5076820;28;20188;-75
2023/10/18 09:14:59;;;;;;;14.40;13.00;;;;;;;9.77;100.00;97356.56;5077275;28;20635;-74
2023/10/18 09:17:25;;;;;;;16.43;12.97;;;;;;;10.01;100.00;97347.56;5077552;28;20583;-74
2023/10/18 09:19:56;;;;;;;13.93;12.53;;;;;;;9.96;100.00;97350.91;5077044;28;20219;-75
2023/10/18 09:22:23;;;;;;;14.87;12.20;;;;;;;9.92;100.00;97351.59;5076846;28;20205;-75
2023/10/18 09:24:49;;;;;;;13.27;11.97;;;;;;;10.05;100.00;97352.19;5076894;28;20204;-75
2023/10/18 09:27:16;;;;;;;13.47;12.17;;;;;;;10.07;100.00;97338.69;5076665;28;20228;-75
2023/10/18 09:29:44;;;;;;;15.60;13.00;;;;;;;10.23;100.00;97340.63;5076761;28;20208;-75
2023/10/18 09:32:24;;;;;;;13.50;12.20;;;;;;;10.66;100.00;97340.97;5076610;28;20214;-76
2023/10/18 09:34:51;;;;;;;14.23;12.20;;;;;;;10.74;100.00;97328.13;5076581;28;20250;-76
2023/10/18 09:37:28;;;;;;;16.83;12.40;;;;;;;10.55;100.00;97317.91;5076123;28;20225;-77
2023/10/18 09:39:56;;;;;;;14.43;12.93;;;;;;;10.61;100.00;97311.63;5077085;28;20279;-76
2023/10/18 09:42:23;;;;;;;15.13;11.83;;;;;;;10.80;100.00;97315.72;5076468;28;20204;-76
2023/10/18 09:44:51;;;;;;;14.50;12.60;;;;;;;10.93;100.00;97314.63;5076596;28;20200;-76
2023/10/18 09:47:18;;;;;;;13.80;12.40;;;;;;;10.85;100.00;97316.63;5076064;28;20769;-75
2023/10/18 09:49:46;;;;;;;13.57;12.17;;;;;;;10.90;100.00;97323.88;5076166;28;20693;-75
2023/10/18 09:52:15;;;;;;;15.57;11.97;;;;;;;11.04;100.00;97317.25;5076257;28;20218;-74
2023/10/18 09:54:50;;;;;;;14.57;12.17;;;;;;;10.95;100.00;97308.81;5076109;28;20667;-75
2023/10/18 09:57:24;;;;;;;15.77;13.57;;;;;;;11.09;100.00;97307.47;5075850;28;20230;-75
2023/10/18 09:59:55;;;;;;;13.00;11.67;;;;;;;11.26;100.00;97301.38;5076065;28;20217;-75
2023/10/18 10:02:23;;;;;;;13.70;12.40;;;;;;;11.12;100.00;97303.53;5075849;28;20193;-75
2023/10/18 10:04:52;;;;;;;13.20;11.90;;;;;;;11.01;100.00;97299.88;5075908;28;20207;-75
2023/10/18 10:07:39;;;;;;;13.97;12.47;;;;;;;10.95;100.00;97303.50;5074579;28;20228;-77
2023/10/18 10:10:17;;;;;;;17.70;12.83;;;;;;;11.21;100.00;97309.28;5075535;28;20560;-74
2023/10/18 10:12:46;;;;;;;16.00;13.67;;;;;;;11.15;100.00;97287.09;5075502;28;20193;-75
2023/10/18 10:15:17;;;;;;;14.83;13.30;;;;;;;11.26;100.00;97288.06;5075901;28;20528;-75
2023/10/18 10:17:56;;;;;;;15.50;13.10;;;;;;;11.39;100.00;97291.22;5075942;28;20224;-75
2023/10/18 10:20:31;;;;;;;14.47;12.93;;;;;;;11.42;100.00;97281.94;5075205;28;20251;-75
2023/10/18 10:23:02;;;;;;;15.20;13.60;;;;;;;11.32;100.00;97279.94;5075867;28;20281;-75
2023/10/18 10:25:32;;;;;;;15.40;13.03;;;;;;;11.22;100.00;97281.63;5075817;28;20200;-75
2023/10/18 10:27:59;;;;;;;18.17;13.27;;;;;;;11.32;100.00;97271.94;5075164;28;20233;-75
2023/10/18 10:30:34;;;;;;;13.83;12.40;;;;;;;11.37;100.00;97272.03;5074186;28;20204;-75
2023/10/18 10:33:05;;;;;;;14.63;12.63;;;;;;;11.36;100.00;97272.25;5075533;28;20193;-77
2023/10/18 10:35:35;;;;;;;16.30;12.70;;;;;;;11.43;100.00;97275.59;5075452;28;20193;-76
2023/10/18 10:38:05;;;;;;;16.97;13.13;;;;;;;11.53;100.00;97263.22;5075235;28;20233;-76
2023/10/18 10:40:38;;;;;;;15.83;12.37;;;;;;;11.88;100.00;97266.41;5075712;28;20240;-75
2023/10/18 10:43:12;;;;;;;13.23;11.87;;;;;;;12.20;100.00;97263.91;5075446;28;20195;-75
2023/10/18 10:45:43;;;;;;;13.90;12.00;;;;;;;12.46;100.00;97255.94;5075298;28;20192;-75
2023/10/18 10:48:28;;;;;;;13.20;11.80;;;;;;;12.65;100.00;97245.75;5075150;28;20226;-76
2023/10/18 10:51:13;;;;;;;14.00;11.80;;;;;;;12.91;100.00;97235.09;5074787;28;20195;-76
2023/10/18 10:53:48;;;;;;;11.93;10.73;;;;;;;12.89;100.00;97226.50;5075132;28;20196;-76
2023/10/18 10:56:20;;;;;;;13.40;10.17;;;;;;;12.84;100.00;97231.03;5075255;28;20188;-76
2023/10/18 10:59:03;;;;;;;14.77;11.30;;;;;;;13.13;100.00;97217.16;5075029;28;20228;-76
2023/10/18 11:01:43;;;;;;;11.43;10.33;;;;;;;13.04;100.00;97210.69;5074698;28;20208;-76
2023/10/18 11:04:14;;;;;;;12.13;10.30;;;;;;;13.11;100.00;97203.25;5074786;28;20708;-76
2023/10/18 11:06:43;;;;;;;13.27;10.37;;;;;;;13.17;100.00;97201.44;5074885;28;20213;-76
2023/10/18 11:09:15;;;;;;;14.07;10.53;;;;;;;13.20;100.00;97212.41;5074782;28;20236;-76
2023/10/18 11:11:43;;;;;;;11.90;10.70;;;;;;;13.19;100.00;97216.13;5074314;28;20681;-76
2023/10/18 11:14:17;;;;;;;12.90;10.13;;;;;;;13.50;100.00;97220.63;5074866;28;20262;-76
2023/10/18 11:16:53;;;;;;;10.60;9.50;;;;;;;13.49;99.75;97231.56;5073823;28;20185;-76
2023/10/18 11:19:28;;;;;;;12.13;10.07;;;;;;;13.39;98.78;97212.81;5074445;28;20192;-76
2023/10/18 11:21:55;;;;;;;9.23;8.23;;;;;;;13.49;100.00;97200.34;5074723;28;20188;-76
2023/10/18 11:24:24;;;;;;;10.17;9.17;;;;;;;13.60;98.41;97193.97;5074965;28;20567;-76
2023/10/18 11:26:51;;;;;;;9.57;8.67;;;;;;;13.40;99.36;97196.53;5074489;28;20216;-76
2023/10/18 11:29:24;;;;;;;10.40;9.27;;;;;;;13.17;97.94;97190.75;5074616;28;20236;-76
2023/10/18 11:31:55;;;;;;;10.47;9.23;;;;;;;13.01;98.75;97183.69;5074391;28;20254;-76
2023/10/18 11:34:25;;;;;;;11.67;9.17;;;;;;;13.00;98.07;97174.09;5073920;28;20654;-76
2023/10/18 11:36:53;;;;;;;9.80;8.80;;;;;;;13.12;97.83;97172.84;5074146;28;20200;-76
2023/10/18 11:39:21;;;;;;;11.30;8.33;;;;;;;13.29;98.90;97173.50;5074619;28;20208;-76
2023/10/18 11:41:56;;;;;;;9.17;8.37;;;;;;;13.45;96.75;97161.06;5074206;28;20208;-76
2023/10/18 11:44:30;;;;;;;9.50;8.57;;;;;;;13.45;98.36;97151.19;5074166;28;20234;-75
2023/10/18 11:47:11;;;;;;;9.57;8.00;;;;;;;13.62;96.96;97143.78;5073914;28;20208;-75